Terminal Aerodrome Forecast
Issued by NWS Buffalo, NY

Home | Current Version | Previous Version | Text Only | Print | Product List | Glossary On
Versions: 1 2 3 4 5 6 7 8 9 10 11 12 13 14 15 16 17 18 19 20 21 22 23 24
171
FTUS41 KBUF 230949 AAB
TAFART
TAF AMD
KART 230949Z 2310/2406 00000KT P6SM SKC
      TEMPO 2310/2312 4SM BR
     FM231300 21008KT P6SM SKC
     FM231700 23012KT P6SM SKC
     FM240000 20006KT P6SM FEW250
     FM240400 32006KT P6SM SCT080 BKN250=

USA.gov is the U.S. government's official web portal to all federal, state and local government web resources and services.